Roswell International Air Center Airport
KROW : now visible

Airfield :











YOU CAN JOIN US ON...

 
LOGIN :

Register | Disclaimer

   EN    FR    IT 

 









Legend :    VFR   Marginal VFR   IFR   Intensive IFR   Very Intensive IFR
Visi :
Ceiling :
>= 8 km
>= 3000ft
5 to 8 km
1000 to 3000 ft
1500m to 5 km
500 to 1000 ft
800 to 1500m
200 to 500 ft
< 800m
< 200 ft
Symbols :   Thunderstorms  Fog  Heavy snow  Heavy precipitations  Wind > 20 kt






- Airport Elevation : 3671 ft
- IATA code : ROW


KROW - Roswell International Air Center

CURRENT METAR :
  • 180551Z AUTO 01012KT 10SM CLR 10/03 A2989 RMK AO2 SLP078 T01000033 10217 20100 53027 $

EXPIRED METARs :
  • 180451Z AUTO 32010KT 10SM CLR 13/02 A2986 RMK AO2 SLP068 T01280022 $
  • 180351Z AUTO 27013KT 10SM CLR 13/03 A2982 RMK AO2 SLP059 T01330028 $

TAF KROW
Valid from the 18 at 06:00 until the 19 at 06:00 UTC


180537Z 1806/1906 34011KT P6SM BKN250
TEMPO 1809/1812 36013G21KT
FM181200 01013G21KT P6SM OVC015
FM181800 04008KT P6SM OVC028
FM182200 11008KT P6SM BKN035
FM190300 13007KT P6SM BKN040



MET'MAP, your aeronautical weather chart ! - Copyright ORBIFLY December 2007 - Disclaimer

ORBIFLY MET'MAP TEAM :

Programming & Development : Alexandra Zaïnal
Concept & original design : Baudouin d'Aumeries
Assistance for programming : Marc-Olivier Méhu
Technical & hardware support : Manuel Goepfert

Contact : metmap@orbifly.com




SOURCES & CREDITS :

   NOAA       Earth
Advisory